Lafayette, Ohio
Current Conditions -  °F | °C
As of 7:53 PM on Monday 22 Dec 2014 (Local Time) from KAOH Reporting Station
Light Rain Light Rain  
Wind Chill: 38°   Ceiling: 6000
Heat Index: 43°   Visibility: 7mi
Dew Point: 35°   Wind: 9mph
Humidity: 74%   Direction: 110°ESE
Pressure: 29.82"   Gusts: NA
Location:  40.76°N, 83.95°W
Report Text: KAOH 230053Z AUTO 11008KT 7SM -RA BKN060 OVC075 06/02 A2982 RMK AO2 RAB44 SLP105 P0000 T00610017
Loading
Personal Weather Stations






























Interactive Weather Map New forecast layout! Learn more

10-Day Weather Forecast

Advertisements
Track Severe Weather on mobile